sensor_id;sensor_type;location;lat;lon;timestamp;temperature;humidity
54202;DHT22;40108;53.152;5.844;2022-07-18T00:01:57;17.10;84.80
54202;DHT22;40108;53.152;5.844;2022-07-18T00:04:24;17.10;85.20
54202;DHT22;40108;53.152;5.844;2022-07-18T00:06:50;17.10;84.70
54202;DHT22;40108;53.152;5.844;2022-07-18T00:09:20;17.10;85.00
54202;DHT22;40108;53.152;5.844;2022-07-18T00:11:51;17.00;85.20
54202;DHT22;40108;53.152;5.844;2022-07-18T00:14:21;17.00;85.50
54202;DHT22;40108;53.152;5.844;2022-07-18T00:16:50;17.00;85.90
54202;DHT22;40108;53.152;5.844;2022-07-18T00:19:22;17.00;85.90
54202;DHT22;40108;53.152;5.844;2022-07-18T00:21:48;17.00;85.70
54202;DHT22;40108;53.152;5.844;2022-07-18T00:24:14;17.00;85.90
54202;DHT22;40108;53.152;5.844;2022-07-18T00:26:40;17.00;86.30
54202;DHT22;40108;53.152;5.844;2022-07-18T00:29:06;17.00;86.40
54202;DHT22;40108;53.152;5.844;2022-07-18T00:31:42;17.00;86.40
54202;DHT22;40108;53.152;5.844;2022-07-18T00:34:08;17.00;86.60
54202;DHT22;40108;53.152;5.844;2022-07-18T00:36:38;17.00;88.10
54202;DHT22;40108;53.152;5.844;2022-07-18T00:39:15;16.90;87.70
54202;DHT22;40108;53.152;5.844;2022-07-18T00:41:45;17.00;86.80
54202;DHT22;40108;53.152;5.844;2022-07-18T00:44:25;16.90;86.80
54202;DHT22;40108;53.152;5.844;2022-07-18T00:46:53;16.90;86.40
54202;DHT22;40108;53.152;5.844;2022-07-18T00:49:19;16.90;86.10
54202;DHT22;40108;53.152;5.844;2022-07-18T00:51:45;16.80;85.50
54202;DHT22;40108;53.152;5.844;2022-07-18T00:54:11;16.80;85.10
54202;DHT22;40108;53.152;5.844;2022-07-18T00:56:38;16.80;84.90
54202;DHT22;40108;53.152;5.844;2022-07-18T00:59:04;16.70;84.70
54202;DHT22;40108;53.152;5.844;2022-07-18T01:01:30;16.70;84.60
54202;DHT22;40108;53.152;5.844;2022-07-18T01:04:19;16.70;84.50
54202;DHT22;40108;53.152;5.844;2022-07-18T01:06:47;16.70;84.30
54202;DHT22;40108;53.152;5.844;2022-07-18T01:09:14;16.70;84.20
54202;DHT22;40108;53.152;5.844;2022-07-18T01:11:40;16.60;84.20
54202;DHT22;40108;53.152;5.844;2022-07-18T01:14:07;16.60;84.20
54202;DHT22;40108;53.152;5.844;2022-07-18T01:16:33;16.60;84.40
54202;DHT22;40108;53.152;5.844;2022-07-18T01:18:59;16.60;84.20
54202;DHT22;40108;53.152;5.844;2022-07-18T01:21:25;16.60;84.20
54202;DHT22;40108;53.152;5.844;2022-07-18T01:23:51;16.60;84.20
54202;DHT22;40108;53.152;5.844;2022-07-18T01:26:17;16.50;84.20
54202;DHT22;40108;53.152;5.844;2022-07-18T01:28:44;16.40;84.30
54202;DHT22;40108;53.152;5.844;2022-07-18T01:31:10;16.40;84.40
54202;DHT22;40108;53.152;5.844;2022-07-18T01:33:36;16.40;84.20
54202;DHT22;40108;53.152;5.844;2022-07-18T01:36:03;16.40;84.10
54202;DHT22;40108;53.152;5.844;2022-07-18T01:38:31;16.40;84.10
54202;DHT22;40108;53.152;5.844;2022-07-18T01:41:00;16.30;84.10
54202;DHT22;40108;53.152;5.844;2022-07-18T01:43:34;16.20;84.20
54202;DHT22;40108;53.152;5.844;2022-07-18T01:46:00;16.20;84.50
54202;DHT22;40108;53.152;5.844;2022-07-18T01:48:26;16.10;84.70
54202;DHT22;40108;53.152;5.844;2022-07-18T01:50:53;16.10;84.80
54202;DHT22;40108;53.152;5.844;2022-07-18T01:53:19;16.10;84.90
54202;DHT22;40108;53.152;5.844;2022-07-18T01:55:45;16.00;84.90
54202;DHT22;40108;53.152;5.844;2022-07-18T01:58:10;16.00;84.90
54202;DHT22;40108;53.152;5.844;2022-07-18T02:00:36;16.00;84.90
54202;DHT22;40108;53.152;5.844;2022-07-18T02:03:02;16.00;84.90
54202;DHT22;40108;53.152;5.844;2022-07-18T02:05:27;15.90;85.00
54202;DHT22;40108;53.152;5.844;2022-07-18T02:07:53;15.90;84.90
54202;DHT22;40108;53.152;5.844;2022-07-18T02:10:21;15.90;84.70
54202;DHT22;40108;53.152;5.844;2022-07-18T02:12:47;15.80;84.80
54202;DHT22;40108;53.152;5.844;2022-07-18T02:15:14;15.80;84.80
54202;DHT22;40108;53.152;5.844;2022-07-18T02:17:40;15.80;84.70
54202;DHT22;40108;53.152;5.844;2022-07-18T02:20:08;15.80;84.70
54202;DHT22;40108;53.152;5.844;2022-07-18T02:22:35;15.80;84.60
54202;DHT22;40108;53.152;5.844;2022-07-18T02:25:01;15.80;84.60
54202;DHT22;40108;53.152;5.844;2022-07-18T02:27:27;15.70;84.50
54202;DHT22;40108;53.152;5.844;2022-07-18T02:29:53;15.70;84.60
54202;DHT22;40108;53.152;5.844;2022-07-18T02:32:19;15.80;84.50
54202;DHT22;40108;53.152;5.844;2022-07-18T02:34:45;15.80;84.50
54202;DHT22;40108;53.152;5.844;2022-07-18T02:37:11;15.80;84.30
54202;DHT22;40108;53.152;5.844;2022-07-18T02:39:36;15.80;84.30
54202;DHT22;40108;53.152;5.844;2022-07-18T02:42:03;15.80;84.30
54202;DHT22;40108;53.152;5.844;2022-07-18T02:44:29;15.80;84.30
54202;DHT22;40108;53.152;5.844;2022-07-18T02:47:00;15.80;84.30
54202;DHT22;40108;53.152;5.844;2022-07-18T02:49:26;15.70;84.30
54202;DHT22;40108;53.152;5.844;2022-07-18T02:52:03;15.70;84.30
54202;DHT22;40108;53.152;5.844;2022-07-18T02:54:34;15.60;84.10
54202;DHT22;40108;53.152;5.844;2022-07-18T02:57:17;15.60;84.10
54202;DHT22;40108;53.152;5.844;2022-07-18T02:59:43;15.60;84.00
54202;DHT22;40108;53.152;5.844;2022-07-18T03:02:09;15.60;83.90
54202;DHT22;40108;53.152;5.844;2022-07-18T03:04:38;15.60;83.80
54202;DHT22;40108;53.152;5.844;2022-07-18T03:07:03;15.60;83.70
54202;DHT22;40108;53.152;5.844;2022-07-18T03:09:29;15.60;83.50
54202;DHT22;40108;53.152;5.844;2022-07-18T03:11:57;15.60;83.30
54202;DHT22;40108;53.152;5.844;2022-07-18T03:14:23;15.60;83.00
54202;DHT22;40108;53.152;5.844;2022-07-18T03:16:49;15.60;82.90
54202;DHT22;40108;53.152;5.844;2022-07-18T03:19:16;15.60;82.70
54202;DHT22;40108;53.152;5.844;2022-07-18T03:21:42;15.50;82.40
54202;DHT22;40108;53.152;5.844;2022-07-18T03:24:08;15.60;82.40
54202;DHT22;40108;53.152;5.844;2022-07-18T03:26:34;15.60;82.30
54202;DHT22;40108;53.152;5.844;2022-07-18T03:28:59;15.60;82.40
54202;DHT22;40108;53.152;5.844;2022-07-18T03:31:25;15.60;82.30
54202;DHT22;40108;53.152;5.844;2022-07-18T03:33:54;15.60;82.20
54202;DHT22;40108;53.152;5.844;2022-07-18T03:36:25;15.50;82.20
54202;DHT22;40108;53.152;5.844;2022-07-18T03:38:51;15.50;82.30
54202;DHT22;40108;53.152;5.844;2022-07-18T03:41:20;15.50;82.40
54202;DHT22;40108;53.152;5.844;2022-07-18T03:43:46;15.50;82.50
54202;DHT22;40108;53.152;5.844;2022-07-18T03:46:11;15.40;82.50
54202;DHT22;40108;53.152;5.844;2022-07-18T03:48:37;15.40;82.60
54202;DHT22;40108;53.152;5.844;2022-07-18T03:51:07;15.40;82.70
54202;DHT22;40108;53.152;5.844;2022-07-18T03:53:33;15.40;82.60
54202;DHT22;40108;53.152;5.844;2022-07-18T03:56:07;15.40;82.60
54202;DHT22;40108;53.152;5.844;2022-07-18T03:58:33;15.40;82.60
54202;DHT22;40108;53.152;5.844;2022-07-18T04:00:59;15.40;82.50
54202;DHT22;40108;53.152;5.844;2022-07-18T04:03:25;15.40;82.30
54202;DHT22;40108;53.152;5.844;2022-07-18T04:05:51;15.40;82.20
54202;DHT22;40108;53.152;5.844;2022-07-18T04:08:16;15.40;82.10
54202;DHT22;40108;53.152;5.844;2022-07-18T04:10:42;15.40;82.30
54202;DHT22;40108;53.152;5.844;2022-07-18T04:13:09;15.40;82.30
54202;DHT22;40108;53.152;5.844;2022-07-18T04:15:35;15.40;82.20
54202;DHT22;40108;53.152;5.844;2022-07-18T04:18:06;15.40;82.20
54202;DHT22;40108;53.152;5.844;2022-07-18T04:20:33;15.50;82.20
54202;DHT22;40108;53.152;5.844;2022-07-18T04:23:06;15.40;82.20
54202;DHT22;40108;53.152;5.844;2022-07-18T04:25:37;15.40;82.40
54202;DHT22;40108;53.152;5.844;2022-07-18T04:28:03;15.40;82.50
54202;DHT22;40108;53.152;5.844;2022-07-18T04:30:33;15.50;82.50
54202;DHT22;40108;53.152;5.844;2022-07-18T04:33:02;15.50;82.50
54202;DHT22;40108;53.152;5.844;2022-07-18T04:35:29;15.50;82.60
54202;DHT22;40108;53.152;5.844;2022-07-18T04:37:55;15.50;82.60
54202;DHT22;40108;53.152;5.844;2022-07-18T04:40:24;15.50;82.80
54202;DHT22;40108;53.152;5.844;2022-07-18T04:42:50;15.50;82.60
54202;DHT22;40108;53.152;5.844;2022-07-18T04:45:16;15.50;82.60
54202;DHT22;40108;53.152;5.844;2022-07-18T04:47:52;15.50;82.60
54202;DHT22;40108;53.152;5.844;2022-07-18T04:50:19;15.50;82.60
54202;DHT22;40108;53.152;5.844;2022-07-18T04:52:46;15.60;82.50
54202;DHT22;40108;53.152;5.844;2022-07-18T04:55:13;15.60;82.40
54202;DHT22;40108;53.152;5.844;2022-07-18T04:57:40;15.60;82.30
54202;DHT22;40108;53.152;5.844;2022-07-18T05:00:17;15.70;82.10
54202;DHT22;40108;53.152;5.844;2022-07-18T05:02:49;15.70;82.00
54202;DHT22;40108;53.152;5.844;2022-07-18T05:05:16;15.70;81.90
54202;DHT22;40108;53.152;5.844;2022-07-18T05:07:43;15.80;81.90
54202;DHT22;40108;53.152;5.844;2022-07-18T05:10:11;15.80;81.80
54202;DHT22;40108;53.152;5.844;2022-07-18T05:12:39;15.90;81.90
54202;DHT22;40108;53.152;5.844;2022-07-18T05:15:06;15.90;81.80
54202;DHT22;40108;53.152;5.844;2022-07-18T05:17:36;16.00;81.70
54202;DHT22;40108;53.152;5.844;2022-07-18T05:20:03;16.00;81.70
54202;DHT22;40108;53.152;5.844;2022-07-18T05:22:29;16.00;81.90
54202;DHT22;40108;53.152;5.844;2022-07-18T05:24:55;16.00;82.00
54202;DHT22;40108;53.152;5.844;2022-07-18T05:27:21;16.10;82.20
54202;DHT22;40108;53.152;5.844;2022-07-18T05:29:47;16.10;82.20
54202;DHT22;40108;53.152;5.844;2022-07-18T05:32:22;16.10;82.50
54202;DHT22;40108;53.152;5.844;2022-07-18T05:34:50;16.20;82.50
54202;DHT22;40108;53.152;5.844;2022-07-18T05:37:22;16.20;82.20
54202;DHT22;40108;53.152;5.844;2022-07-18T05:39:49;16.20;82.20
54202;DHT22;40108;53.152;5.844;2022-07-18T05:42:18;16.30;82.10
54202;DHT22;40108;53.152;5.844;2022-07-18T05:45:18;16.40;81.80
54202;DHT22;40108;53.152;5.844;2022-07-18T05:47:47;16.50;81.50
54202;DHT22;40108;53.152;5.844;2022-07-18T05:50:13;16.50;81.30
54202;DHT22;40108;53.152;5.844;2022-07-18T05:52:42;16.60;81.00
54202;DHT22;40108;53.152;5.844;2022-07-18T05:55:08;16.70;80.90
54202;DHT22;40108;53.152;5.844;2022-07-18T05:57:43;16.80;80.50
54202;DHT22;40108;53.152;5.844;2022-07-18T06:00:13;16.80;80.60
54202;DHT22;40108;53.152;5.844;2022-07-18T06:02:39;17.00;80.60
54202;DHT22;40108;53.152;5.844;2022-07-18T06:05:06;17.00;80.30
54202;DHT22;40108;53.152;5.844;2022-07-18T06:07:32;17.10;80.40
54202;DHT22;40108;53.152;5.844;2022-07-18T06:09:58;17.10;80.00
54202;DHT22;40108;53.152;5.844;2022-07-18T06:12:25;17.30;79.60
54202;DHT22;40108;53.152;5.844;2022-07-18T06:14:54;17.40;79.50
54202;DHT22;40108;53.152;5.844;2022-07-18T06:17:19;17.50;78.70
54202;DHT22;40108;53.152;5.844;2022-07-18T06:19:45;17.60;78.50
54202;DHT22;40108;53.152;5.844;2022-07-18T06:22:21;17.70;77.90
54202;DHT22;40108;53.152;5.844;2022-07-18T06:24:47;17.90;76.70
54202;DHT22;40108;53.152;5.844;2022-07-18T06:27:13;18.00;76.00
54202;DHT22;40108;53.152;5.844;2022-07-18T06:29:39;18.10;75.10
54202;DHT22;40108;53.152;5.844;2022-07-18T06:32:06;18.10;75.10
54202;DHT22;40108;53.152;5.844;2022-07-18T06:34:32;18.20;73.90
54202;DHT22;40108;53.152;5.844;2022-07-18T06:36:58;18.40;73.40
54202;DHT22;40108;53.152;5.844;2022-07-18T06:39:32;18.60;71.60
54202;DHT22;40108;53.152;5.844;2022-07-18T06:41:58;18.80;70.60
54202;DHT22;40108;53.152;5.844;2022-07-18T06:44:31;19.10;71.30
54202;DHT22;40108;53.152;5.844;2022-07-18T06:46:57;19.40;69.50
54202;DHT22;40108;53.152;5.844;2022-07-18T06:49:24;19.60;69.30
54202;DHT22;40108;53.152;5.844;2022-07-18T06:52:02;19.70;67.50
54202;DHT22;40108;53.152;5.844;2022-07-18T06:54:28;19.80;67.20
54202;DHT22;40108;53.152;5.844;2022-07-18T06:57:11;19.80;67.40
54202;DHT22;40108;53.152;5.844;2022-07-18T06:59:37;19.80;66.90
54202;DHT22;40108;53.152;5.844;2022-07-18T07:02:04;19.90;66.80
54202;DHT22;40108;53.152;5.844;2022-07-18T07:04:30;19.90;66.20
54202;DHT22;40108;53.152;5.844;2022-07-18T07:07:11;20.00;67.10
54202;DHT22;40108;53.152;5.844;2022-07-18T07:09:40;20.10;67.50
54202;DHT22;40108;53.152;5.844;2022-07-18T07:12:11;20.10;66.80
54202;DHT22;40108;53.152;5.844;2022-07-18T07:14:37;20.20;67.40
54202;DHT22;40108;53.152;5.844;2022-07-18T07:17:12;20.30;67.10
54202;DHT22;40108;53.152;5.844;2022-07-18T07:19:38;20.30;67.50
54202;DHT22;40108;53.152;5.844;2022-07-18T07:22:04;20.40;67.70
54202;DHT22;40108;53.152;5.844;2022-07-18T07:24:30;20.50;67.60
54202;DHT22;40108;53.152;5.844;2022-07-18T07:26:56;20.60;67.80
54202;DHT22;40108;53.152;5.844;2022-07-18T07:29:21;20.80;67.00
54202;DHT22;40108;53.152;5.844;2022-07-18T07:31:47;21.10;65.50
54202;DHT22;40108;53.152;5.844;2022-07-18T07:34:13;21.60;66.10
54202;DHT22;40108;53.152;5.844;2022-07-18T07:36:40;21.80;62.80
54202;DHT22;40108;53.152;5.844;2022-07-18T07:39:08;22.00;58.00
54202;DHT22;40108;53.152;5.844;2022-07-18T07:41:34;21.90;58.00
54202;DHT22;40108;53.152;5.844;2022-07-18T07:44:00;22.00;58.50
54202;DHT22;40108;53.152;5.844;2022-07-18T07:46:27;22.10;58.20
54202;DHT22;40108;53.152;5.844;2022-07-18T07:48:53;22.60;58.50
54202;DHT22;40108;53.152;5.844;2022-07-18T07:51:22;22.80;57.10
54202;DHT22;40108;53.152;5.844;2022-07-18T07:53:47;22.80;55.70
54202;DHT22;40108;53.152;5.844;2022-07-18T07:56:16;22.70;55.90
54202;DHT22;40108;53.152;5.844;2022-07-18T07:58:45;23.00;55.00
54202;DHT22;40108;53.152;5.844;2022-07-18T08:01:11;23.10;54.70
54202;DHT22;40108;53.152;5.844;2022-07-18T08:03:38;23.40;54.40
54202;DHT22;40108;53.152;5.844;2022-07-18T08:06:04;23.60;53.40
54202;DHT22;40108;53.152;5.844;2022-07-18T08:08:30;23.80;53.40
54202;DHT22;40108;53.152;5.844;2022-07-18T08:10:56;24.10;52.60
54202;DHT22;40108;53.152;5.844;2022-07-18T08:16:22;24.60;52.60
54202;DHT22;40108;53.152;5.844;2022-07-18T08:18:48;24.80;50.40
54202;DHT22;40108;53.152;5.844;2022-07-18T08:21:14;24.80;49.90
54202;DHT22;40108;53.152;5.844;2022-07-18T08:23:40;24.80;49.40
54202;DHT22;40108;53.152;5.844;2022-07-18T08:26:06;24.90;48.00
54202;DHT22;40108;53.152;5.844;2022-07-18T08:28:40;25.10;46.60
54202;DHT22;40108;53.152;5.844;2022-07-18T08:31:06;25.40;46.40
54202;DHT22;40108;53.152;5.844;2022-07-18T08:33:38;25.40;45.30
54202;DHT22;40108;53.152;5.844;2022-07-18T08:36:07;25.40;46.40
54202;DHT22;40108;53.152;5.844;2022-07-18T08:38:57;25.60;47.60
54202;DHT22;40108;53.152;5.844;2022-07-18T08:41:23;26.00;46.30
54202;DHT22;40108;53.152;5.844;2022-07-18T08:43:50;26.20;43.60
54202;DHT22;40108;53.152;5.844;2022-07-18T08:46:20;26.30;44.60
54202;DHT22;40108;53.152;5.844;2022-07-18T08:48:48;26.60;43.80
54202;DHT22;40108;53.152;5.844;2022-07-18T08:51:18;26.70;42.90
54202;DHT22;40108;53.152;5.844;2022-07-18T08:53:47;26.70;43.20
54202;DHT22;40108;53.152;5.844;2022-07-18T08:56:21;26.60;43.40
54202;DHT22;40108;53.152;5.844;2022-07-18T08:59:22;26.70;44.30
54202;DHT22;40108;53.152;5.844;2022-07-18T09:01:53;26.70;42.70
54202;DHT22;40108;53.152;5.844;2022-07-18T09:06:59;26.70;44.80
54202;DHT22;40108;53.152;5.844;2022-07-18T09:09:25;26.80;44.00
54202;DHT22;40108;53.152;5.844;2022-07-18T09:11:56;26.80;43.20
54202;DHT22;40108;53.152;5.844;2022-07-18T09:17:17;26.80;43.60
54202;DHT22;40108;53.152;5.844;2022-07-18T09:22:32;27.00;44.30
54202;DHT22;40108;53.152;5.844;2022-07-18T09:27:37;26.80;44.30
54202;DHT22;40108;53.152;5.844;2022-07-18T09:30:17;26.90;45.10
54202;DHT22;40108;53.152;5.844;2022-07-18T09:35:35;27.20;44.20
54202;DHT22;40108;53.152;5.844;2022-07-18T09:38:12;27.30;44.80
54202;DHT22;40108;53.152;5.844;2022-07-18T09:41:12;27.50;44.20
54202;DHT22;40108;53.152;5.844;2022-07-18T09:43:38;27.60;44.50
54202;DHT22;40108;53.152;5.844;2022-07-18T09:46:05;27.50;41.00
54202;DHT22;40108;53.152;5.844;2022-07-18T09:48:37;27.50;42.70
54202;DHT22;40108;53.152;5.844;2022-07-18T09:51:06;27.60;44.40
54202;DHT22;40108;53.152;5.844;2022-07-18T09:53:42;27.60;43.00
54202;DHT22;40108;53.152;5.844;2022-07-18T09:56:34;27.70;42.30
54202;DHT22;40108;53.152;5.844;2022-07-18T09:59:07;27.70;41.40
54202;DHT22;40108;53.152;5.844;2022-07-18T10:01:33;27.50;41.30
54202;DHT22;40108;53.152;5.844;2022-07-18T10:03:59;27.40;41.10
54202;DHT22;40108;53.152;5.844;2022-07-18T10:06:38;27.50;42.20
54202;DHT22;40108;53.152;5.844;2022-07-18T10:09:08;27.50;40.70
54202;DHT22;40108;53.152;5.844;2022-07-18T10:11:34;27.50;42.50
54202;DHT22;40108;53.152;5.844;2022-07-18T10:14:00;27.70;41.00
54202;DHT22;40108;53.152;5.844;2022-07-18T10:16:26;28.00;42.30
54202;DHT22;40108;53.152;5.844;2022-07-18T10:18:51;28.30;41.50
54202;DHT22;40108;53.152;5.844;2022-07-18T10:21:19;28.60;39.40
54202;DHT22;40108;53.152;5.844;2022-07-18T10:23:47;28.90;37.40
54202;DHT22;40108;53.152;5.844;2022-07-18T10:26:25;29.20;40.30
54202;DHT22;40108;53.152;5.844;2022-07-18T10:31:42;29.50;40.10
54202;DHT22;40108;53.152;5.844;2022-07-18T10:34:31;29.40;37.90
54202;DHT22;40108;53.152;5.844;2022-07-18T10:39:39;29.50;38.90
54202;DHT22;40108;53.152;5.844;2022-07-18T10:44:34;29.60;36.00
54202;DHT22;40108;53.152;5.844;2022-07-18T10:47:14;29.40;37.30
54202;DHT22;40108;53.152;5.844;2022-07-18T11:00:16;30.10;38.30
54202;DHT22;40108;53.152;5.844;2022-07-18T11:02:46;30.20;38.50
54202;DHT22;40108;53.152;5.844;2022-07-18T11:21:30;29.00;37.30
54202;DHT22;40108;53.152;5.844;2022-07-18T11:24:05;28.90;37.70
54202;DHT22;40108;53.152;5.844;2022-07-18T11:26:43;28.90;37.70
54202;DHT22;40108;53.152;5.844;2022-07-18T11:29:13;28.80;35.90
54202;DHT22;40108;53.152;5.844;2022-07-18T11:31:48;28.80;37.80
54202;DHT22;40108;53.152;5.844;2022-07-18T11:34:15;28.90;37.90
54202;DHT22;40108;53.152;5.844;2022-07-18T11:36:42;28.80;36.70
54202;DHT22;40108;53.152;5.844;2022-07-18T11:39:09;28.80;37.30
54202;DHT22;40108;53.152;5.844;2022-07-18T11:41:38;28.70;37.40
54202;DHT22;40108;53.152;5.844;2022-07-18T11:44:18;28.60;37.60
54202;DHT22;40108;53.152;5.844;2022-07-18T11:46:47;28.50;38.30
54202;DHT22;40108;53.152;5.844;2022-07-18T11:49:13;28.40;37.10
54202;DHT22;40108;53.152;5.844;2022-07-18T11:51:41;28.30;38.00
54202;DHT22;40108;53.152;5.844;2022-07-18T11:54:08;28.40;39.30
54202;DHT22;40108;53.152;5.844;2022-07-18T11:56:53;28.50;38.10
54202;DHT22;40108;53.152;5.844;2022-07-18T11:59:20;28.50;38.30
54202;DHT22;40108;53.152;5.844;2022-07-18T12:01:47;28.50;39.10
54202;DHT22;40108;53.152;5.844;2022-07-18T12:04:20;28.50;38.90
54202;DHT22;40108;53.152;5.844;2022-07-18T12:07:13;28.40;39.20
54202;DHT22;40108;53.152;5.844;2022-07-18T12:09:39;28.50;40.90
54202;DHT22;40108;53.152;5.844;2022-07-18T12:12:12;28.60;39.10
54202;DHT22;40108;53.152;5.844;2022-07-18T12:14:38;28.80;39.60
54202;DHT22;40108;53.152;5.844;2022-07-18T12:17:05;28.80;37.20
54202;DHT22;40108;53.152;5.844;2022-07-18T12:19:36;29.10;39.90
54202;DHT22;40108;53.152;5.844;2022-07-18T12:24:37;29.70;38.70
54202;DHT22;40108;53.152;5.844;2022-07-18T12:33:17;29.60;35.20
54202;DHT22;40108;53.152;5.844;2022-07-18T12:35:43;29.30;36.70
54202;DHT22;40108;53.152;5.844;2022-07-18T12:38:14;28.90;37.70
54202;DHT22;40108;53.152;5.844;2022-07-18T12:41:01;28.80;38.80
54202;DHT22;40108;53.152;5.844;2022-07-18T12:43:43;28.70;38.40
54202;DHT22;40108;53.152;5.844;2022-07-18T12:46:10;28.60;38.50
54202;DHT22;40108;53.152;5.844;2022-07-18T12:48:40;28.50;38.60
54202;DHT22;40108;53.152;5.844;2022-07-18T12:51:08;28.50;39.70
54202;DHT22;40108;53.152;5.844;2022-07-18T12:53:36;28.50;38.80
54202;DHT22;40108;53.152;5.844;2022-07-18T12:56:03;28.50;39.80
54202;DHT22;40108;53.152;5.844;2022-07-18T12:58:37;28.50;40.60
54202;DHT22;40108;53.152;5.844;2022-07-18T13:01:03;28.50;36.90
54202;DHT22;40108;53.152;5.844;2022-07-18T13:03:29;28.70;36.00
54202;DHT22;40108;53.152;5.844;2022-07-18T13:05:55;28.90;35.50
54202;DHT22;40108;53.152;5.844;2022-07-18T13:08:21;29.00;34.50
54202;DHT22;40108;53.152;5.844;2022-07-18T13:10:48;29.20;34.30
54202;DHT22;40108;53.152;5.844;2022-07-18T13:13:16;29.30;35.00
54202;DHT22;40108;53.152;5.844;2022-07-18T13:15:41;29.40;36.60
54202;DHT22;40108;53.152;5.844;2022-07-18T13:18:07;29.60;36.10
54202;DHT22;40108;53.152;5.844;2022-07-18T13:20:33;29.60;34.30
54202;DHT22;40108;53.152;5.844;2022-07-18T13:22:59;29.60;35.10
54202;DHT22;40108;53.152;5.844;2022-07-18T13:25:36;29.60;36.40
54202;DHT22;40108;53.152;5.844;2022-07-18T13:28:22;29.60;35.90
54202;DHT22;40108;53.152;5.844;2022-07-18T13:30:57;29.50;34.40
54202;DHT22;40108;53.152;5.844;2022-07-18T13:33:27;29.50;33.50
54202;DHT22;40108;53.152;5.844;2022-07-18T13:35:53;29.40;34.40
54202;DHT22;40108;53.152;5.844;2022-07-18T13:38:25;29.40;34.40
54202;DHT22;40108;53.152;5.844;2022-07-18T13:40:51;29.40;35.40
54202;DHT22;40108;53.152;5.844;2022-07-18T13:43:18;29.40;30.90
54202;DHT22;40108;53.152;5.844;2022-07-18T13:45:44;29.40;32.20
54202;DHT22;40108;53.152;5.844;2022-07-18T13:48:10;29.50;34.20
54202;DHT22;40108;53.152;5.844;2022-07-18T13:50:36;29.50;29.20
54202;DHT22;40108;53.152;5.844;2022-07-18T13:53:08;29.60;32.60
54202;DHT22;40108;53.152;5.844;2022-07-18T13:55:43;29.60;32.10
54202;DHT22;40108;53.152;5.844;2022-07-18T13:58:09;29.60;33.80
54202;DHT22;40108;53.152;5.844;2022-07-18T14:00:54;29.60;32.40
54202;DHT22;40108;53.152;5.844;2022-07-18T14:03:20;29.60;31.60
54202;DHT22;40108;53.152;5.844;2022-07-18T14:05:46;29.50;28.90
54202;DHT22;40108;53.152;5.844;2022-07-18T14:08:11;29.50;26.20
54202;DHT22;40108;53.152;5.844;2022-07-18T14:10:37;29.40;27.50
54202;DHT22;40108;53.152;5.844;2022-07-18T14:13:04;29.40;25.20
54202;DHT22;40108;53.152;5.844;2022-07-18T14:15:29;29.40;26.90
54202;DHT22;40108;53.152;5.844;2022-07-18T14:17:56;29.40;28.00
54202;DHT22;40108;53.152;5.844;2022-07-18T14:20:22;29.40;27.60
54202;DHT22;40108;53.152;5.844;2022-07-18T14:22:48;29.40;27.90
54202;DHT22;40108;53.152;5.844;2022-07-18T14:25:16;29.40;28.00
54202;DHT22;40108;53.152;5.844;2022-07-18T14:27:43;29.40;28.60
54202;DHT22;40108;53.152;5.844;2022-07-18T14:30:17;29.30;28.00
54202;DHT22;40108;53.152;5.844;2022-07-18T14:35:59;29.00;29.90
54202;DHT22;40108;53.152;5.844;2022-07-18T14:38:28;29.00;31.10
54202;DHT22;40108;53.152;5.844;2022-07-18T14:41:01;28.90;30.90
54202;DHT22;40108;53.152;5.844;2022-07-18T14:43:29;28.90;31.70
54202;DHT22;40108;53.152;5.844;2022-07-18T14:45:58;28.80;32.70
54202;DHT22;40108;53.152;5.844;2022-07-18T14:48:24;28.70;31.30
54202;DHT22;40108;53.152;5.844;2022-07-18T14:50:52;28.70;33.40
54202;DHT22;40108;53.152;5.844;2022-07-18T14:53:19;28.70;34.70
54202;DHT22;40108;53.152;5.844;2022-07-18T14:55:45;28.60;34.40
54202;DHT22;40108;53.152;5.844;2022-07-18T14:58:11;28.60;34.50
54202;DHT22;40108;53.152;5.844;2022-07-18T15:00:37;28.70;34.60
54202;DHT22;40108;53.152;5.844;2022-07-18T15:03:03;28.70;36.00
54202;DHT22;40108;53.152;5.844;2022-07-18T15:06:02;28.60;34.40
54202;DHT22;40108;53.152;5.844;2022-07-18T15:09:09;28.50;35.70
54202;DHT22;40108;53.152;5.844;2022-07-18T15:20:16;28.60;35.50
54202;DHT22;40108;53.152;5.844;2022-07-18T15:22:46;28.80;34.60
54202;DHT22;40108;53.152;5.844;2022-07-18T15:25:12;28.80;35.00
54202;DHT22;40108;53.152;5.844;2022-07-18T15:27:41;28.80;35.00
54202;DHT22;40108;53.152;5.844;2022-07-18T15:30:07;28.80;35.00
54202;DHT22;40108;53.152;5.844;2022-07-18T15:32:34;28.80;34.40
54202;DHT22;40108;53.152;5.844;2022-07-18T15:35:00;28.80;34.30
54202;DHT22;40108;53.152;5.844;2022-07-18T15:37:26;28.80;34.60
54202;DHT22;40108;53.152;5.844;2022-07-18T15:39:52;28.80;35.20
54202;DHT22;40108;53.152;5.844;2022-07-18T15:42:18;28.80;33.40
54202;DHT22;40108;53.152;5.844;2022-07-18T15:44:44;28.80;32.40
54202;DHT22;40108;53.152;5.844;2022-07-18T15:47:10;28.70;34.40
54202;DHT22;40108;53.152;5.844;2022-07-18T15:49:37;28.70;34.30
54202;DHT22;40108;53.152;5.844;2022-07-18T15:52:04;28.70;34.40
54202;DHT22;40108;53.152;5.844;2022-07-18T15:54:33;28.80;34.70
54202;DHT22;40108;53.152;5.844;2022-07-18T15:56:59;28.80;33.20
54202;DHT22;40108;53.152;5.844;2022-07-18T15:59:28;28.80;32.20
54202;DHT22;40108;53.152;5.844;2022-07-18T16:01:57;28.70;32.70
54202;DHT22;40108;53.152;5.844;2022-07-18T16:04:23;28.80;31.30
54202;DHT22;40108;53.152;5.844;2022-07-18T16:06:50;28.80;30.60
54202;DHT22;40108;53.152;5.844;2022-07-18T16:09:16;28.80;30.70
54202;DHT22;40108;53.152;5.844;2022-07-18T16:11:42;28.70;32.60
54202;DHT22;40108;53.152;5.844;2022-07-18T16:14:09;28.60;33.20
54202;DHT22;40108;53.152;5.844;2022-07-18T16:16:37;28.60;31.50
54202;DHT22;40108;53.152;5.844;2022-07-18T16:19:07;28.50;32.50
54202;DHT22;40108;53.152;5.844;2022-07-18T16:21:34;28.50;33.20
54202;DHT22;40108;53.152;5.844;2022-07-18T16:24:00;28.40;33.50
54202;DHT22;40108;53.152;5.844;2022-07-18T16:26:30;28.40;34.00
54202;DHT22;40108;53.152;5.844;2022-07-18T16:29:14;28.30;34.90
54202;DHT22;40108;53.152;5.844;2022-07-18T16:31:44;28.40;34.40
54202;DHT22;40108;53.152;5.844;2022-07-18T16:34:12;28.30;33.30
54202;DHT22;40108;53.152;5.844;2022-07-18T16:36:41;28.30;34.70
54202;DHT22;40108;53.152;5.844;2022-07-18T16:39:33;28.30;33.20
54202;DHT22;40108;53.152;5.844;2022-07-18T16:42:03;28.30;33.60
54202;DHT22;40108;53.152;5.844;2022-07-18T16:44:38;28.20;33.60
54202;DHT22;40108;53.152;5.844;2022-07-18T16:47:07;28.20;33.40
54202;DHT22;40108;53.152;5.844;2022-07-18T16:49:34;28.10;32.40
54202;DHT22;40108;53.152;5.844;2022-07-18T16:52:09;28.10;34.30
54202;DHT22;40108;53.152;5.844;2022-07-18T16:57:18;28.10;34.50